createdAt,value
2018-09-15T00:01:57.817Z,8.50
2018-09-15T00:04:25.451Z,8.23
2018-09-15T00:06:53.389Z,8.03
2018-09-15T00:09:21.054Z,8.80
2018-09-15T00:11:48.685Z,8.83
2018-09-15T00:14:16.354Z,8.65
2018-09-15T00:16:44.155Z,8.00
2018-09-15T00:19:11.850Z,7.97
2018-09-15T00:21:39.496Z,8.55
2018-09-15T00:24:07.862Z,8.03
2018-09-15T00:26:35.665Z,8.15
2018-09-15T00:29:03.343Z,8.80
2018-09-15T00:31:30.983Z,7.90
2018-09-15T00:33:58.827Z,8.60
2018-09-15T00:36:26.600Z,8.23
2018-09-15T00:38:54.264Z,8.90
2018-09-15T00:41:21.916Z,8.80
2018-09-15T00:43:49.639Z,8.33
2018-09-15T00:46:17.393Z,8.30
2018-09-15T00:48:45.193Z,8.13
2018-09-15T00:51:12.799Z,8.50
2018-09-15T00:53:40.390Z,8.08
2018-09-15T00:56:08.008Z,8.18
2018-09-15T00:58:35.646Z,7.62
2018-09-15T01:01:03.543Z,7.70
2018-09-15T01:03:31.217Z,8.00
2018-09-15T01:05:58.807Z,7.53
2018-09-15T01:08:26.443Z,7.83
2018-09-15T01:10:54.239Z,8.13
2018-09-15T01:13:21.878Z,8.20
2018-09-15T01:15:49.487Z,8.33
2018-09-15T01:18:17.147Z,8.28
2018-09-15T01:20:44.842Z,7.58
2018-09-15T01:23:12.452Z,7.85
2018-09-15T01:25:40.369Z,7.83
2018-09-15T01:28:08.085Z,8.10
2018-09-15T01:30:35.709Z,9.23
2018-09-15T01:33:03.479Z,8.35
2018-09-15T01:35:31.097Z,8.27
2018-09-15T01:37:58.775Z,8.15
2018-09-15T01:40:26.525Z,8.68
2018-09-15T01:42:54.096Z,8.33
2018-09-15T01:45:21.737Z,7.65
2018-09-15T01:47:49.336Z,7.83
2018-09-15T01:50:16.996Z,8.20
2018-09-15T01:52:44.635Z,8.00
2018-09-15T01:55:12.253Z,7.50
2018-09-15T01:57:39.913Z,8.15
2018-09-15T02:00:07.651Z,8.20
2018-09-15T02:02:35.306Z,8.53
2018-09-15T02:05:02.985Z,8.33
2018-09-15T02:07:30.614Z,8.28
2018-09-15T02:09:58.380Z,8.10
2018-09-15T02:12:26.100Z,7.80
2018-09-15T02:14:53.746Z,7.90
2018-09-15T02:17:21.396Z,8.05
2018-09-15T02:19:49.014Z,7.65
2018-09-15T02:22:16.700Z,7.70
2018-09-15T02:24:44.337Z,7.33
2018-09-15T02:27:11.973Z,7.87
2018-09-15T02:29:39.847Z,8.30
2018-09-15T02:32:07.491Z,7.78
2018-09-15T02:34:35.118Z,8.48
2018-09-15T02:37:02.761Z,8.30
2018-09-15T02:39:30.397Z,7.80
2018-09-15T02:41:58.032Z,7.60
2018-09-15T02:44:25.752Z,7.50
2018-09-15T02:46:53.429Z,7.70
2018-09-15T02:49:21.063Z,7.28
2018-09-15T02:51:48.737Z,7.50
2018-09-15T02:54:16.577Z,7.92
2018-09-15T02:56:44.200Z,7.37
2018-09-15T02:59:11.822Z,8.48
2018-09-15T03:01:39.468Z,7.70
2018-09-15T03:04:07.119Z,8.23
2018-09-15T03:06:34.821Z,7.72
2018-09-15T03:09:02.561Z,7.65
2018-09-15T03:11:30.262Z,9.23
2018-09-15T03:13:57.879Z,8.60
2018-09-15T03:16:25.537Z,8.90
2018-09-15T03:18:53.557Z,8.83
2018-09-15T03:21:21.264Z,8.43
2018-09-15T03:23:48.878Z,8.63
2018-09-15T03:26:16.463Z,8.83
2018-09-15T03:28:44.101Z,7.90
2018-09-15T03:31:12.019Z,7.75
2018-09-15T03:33:39.823Z,8.08
2018-09-15T03:36:07.443Z,8.15
2018-09-15T03:38:35.241Z,8.47
2018-09-15T03:41:02.896Z,8.23
2018-09-15T03:43:30.516Z,8.65
2018-09-15T03:45:58.154Z,8.18
2018-09-15T03:48:25.783Z,8.15
2018-09-15T03:50:53.406Z,8.73
2018-09-15T03:53:21.053Z,8.43
2018-09-15T03:55:48.690Z,8.18
2018-09-15T03:58:16.573Z,8.03
2018-09-15T04:00:46.983Z,8.50
2018-09-15T04:03:14.609Z,8.03
2018-09-15T04:05:42.270Z,8.25
2018-09-15T04:08:09.952Z,7.92
2018-09-15T04:10:37.568Z,8.58
2018-09-15T04:13:05.188Z,8.50
2018-09-15T04:15:32.823Z,9.10
2018-09-15T04:18:00.422Z,8.30
2018-09-15T04:20:28.078Z,8.18
2018-09-15T04:22:55.685Z,7.78
2018-09-15T04:25:23.361Z,8.78
2018-09-15T04:27:51.020Z,8.93
2018-09-15T04:30:18.666Z,8.18
2018-09-15T04:32:46.273Z,9.23
2018-09-15T04:35:13.852Z,9.48
2018-09-15T04:37:41.491Z,7.90
2018-09-15T04:40:09.317Z,9.03
2018-09-15T04:42:37.024Z,8.75
2018-09-15T04:45:04.690Z,9.10
2018-09-15T04:47:32.310Z,8.68
2018-09-15T04:49:59.925Z,9.00
2018-09-15T04:52:27.629Z,9.03
2018-09-15T04:54:55.318Z,8.75
2018-09-15T04:57:23.386Z,9.30
2018-09-15T04:59:51.137Z,9.95
2018-09-15T05:02:18.852Z,9.20
2018-09-15T05:04:46.490Z,8.98
2018-09-15T05:07:14.236Z,9.20
2018-09-15T05:09:41.803Z,8.37
2018-09-15T05:12:09.572Z,8.43
2018-09-15T05:14:37.149Z,7.92
2018-09-15T05:17:05.056Z,8.45
2018-09-15T05:19:32.964Z,7.33
2018-09-15T05:22:00.583Z,8.05
2018-09-15T05:24:28.227Z,8.93
2018-09-15T05:26:55.812Z,9.53
2018-09-15T05:29:23.592Z,7.90
2018-09-15T05:31:51.363Z,8.18
2018-09-15T05:34:19.049Z,9.18
2018-09-15T05:36:46.659Z,8.18
2018-09-15T05:39:14.274Z,8.53
2018-09-15T05:41:42.458Z,8.55
2018-09-15T05:44:10.555Z,8.58
2018-09-15T05:46:38.606Z,8.65
2018-09-15T05:49:06.285Z,8.58
2018-09-15T05:51:33.971Z,8.05
2018-09-15T05:54:01.750Z,7.50
2018-09-15T05:56:29.654Z,8.43
2018-09-15T05:58:57.527Z,8.58
2018-09-15T06:01:25.669Z,9.00
2018-09-15T06:03:53.373Z,9.78
2018-09-15T06:06:21.055Z,8.63
2018-09-15T06:08:48.671Z,8.45
2018-09-15T06:11:16.377Z,8.60
2018-09-15T06:13:44.206Z,8.75
2018-09-15T06:16:11.912Z,8.30
2018-09-15T06:18:39.625Z,8.10
2018-09-15T06:21:07.227Z,7.75
2018-09-15T06:23:34.861Z,8.50
2018-09-15T06:26:02.487Z,8.20
2018-09-15T06:28:30.304Z,10.23
2018-09-15T06:30:57.997Z,9.90
2018-09-15T06:33:25.997Z,8.68
2018-09-15T06:35:53.641Z,9.15
2018-09-15T06:38:21.279Z,9.50
2018-09-15T06:40:49.240Z,8.58
2018-09-15T06:43:16.849Z,10.93
2018-09-15T06:45:44.502Z,8.47
2018-09-15T06:48:12.059Z,8.70
2018-09-15T06:50:39.689Z,7.87
2018-09-15T06:53:07.354Z,8.90
2018-09-15T06:55:35.106Z,8.85
2018-09-15T06:58:02.711Z,9.73
2018-09-15T07:00:30.310Z,8.90
2018-09-15T07:02:58.299Z,8.25
2018-09-15T07:05:25.925Z,9.75
2018-09-15T07:07:53.630Z,10.60
2018-09-15T07:10:21.355Z,9.57
2018-09-15T07:12:49.018Z,10.45
2018-09-15T07:15:16.861Z,14.05
2018-09-15T07:17:44.467Z,13.83
2018-09-15T07:20:12.072Z,13.08
2018-09-15T07:22:39.744Z,14.78
2018-09-15T07:25:07.559Z,13.78
2018-09-15T07:27:35.179Z,14.63
2018-09-15T07:30:03.017Z,16.05
2018-09-15T07:32:30.695Z,14.38
2018-09-15T07:34:58.315Z,15.10
2018-09-15T07:37:25.948Z,15.58
2018-09-15T07:39:53.791Z,16.02
2018-09-15T07:42:21.675Z,14.80
2018-09-15T07:44:49.347Z,14.97
2018-09-15T07:47:16.949Z,16.00
2018-09-15T07:49:44.607Z,16.97
2018-09-15T07:52:12.248Z,15.20
2018-09-15T07:54:39.978Z,17.02
2018-09-15T07:57:07.836Z,14.28
2018-09-15T07:59:35.490Z,16.37
2018-09-15T08:02:07.851Z,13.50
2018-09-15T08:04:35.472Z,14.40
2018-09-15T08:07:03.167Z,14.18
2018-09-15T08:09:30.812Z,14.10
2018-09-15T08:11:58.446Z,13.10
2018-09-15T08:14:26.113Z,14.43
2018-09-15T08:16:54.019Z,14.65
2018-09-15T08:19:21.731Z,12.47
2018-09-15T08:21:49.504Z,11.25
2018-09-15T08:24:17.126Z,17.40
2018-09-15T08:26:44.721Z,15.58
2018-09-15T08:29:12.601Z,17.73
2018-09-15T08:31:40.233Z,17.98
2018-09-15T08:34:07.863Z,16.75
2018-09-15T08:36:35.493Z,13.43
2018-09-15T08:39:03.680Z,13.58
2018-09-15T08:41:31.301Z,14.70
2018-09-15T08:43:59.084Z,14.83
2018-09-15T08:46:27.557Z,14.53
2018-09-15T08:48:55.183Z,14.55
2018-09-15T08:51:22.908Z,15.30
2018-09-15T08:53:50.496Z,15.68
2018-09-15T08:56:18.212Z,16.07
2018-09-15T08:58:45.828Z,14.65
2018-09-15T09:01:13.429Z,11.97
2018-09-15T09:03:41.119Z,12.45
2018-09-15T09:06:09.125Z,11.40
2018-09-15T09:08:36.756Z,10.83
2018-09-15T09:11:04.357Z,11.43
2018-09-15T09:13:32.229Z,11.15
2018-09-15T09:16:00.961Z,14.80
2018-09-15T09:18:28.606Z,14.78
2018-09-15T09:20:56.337Z,12.82
2018-09-15T09:23:24.003Z,13.35
2018-09-15T09:25:51.773Z,8.28
2018-09-15T09:28:19.382Z,9.38
2018-09-15T09:30:47.050Z,7.10
2018-09-15T09:33:14.828Z,10.30
2018-09-15T09:35:42.565Z,6.95
2018-09-15T09:38:10.310Z,6.12
2018-09-15T09:40:38.183Z,10.13
2018-09-15T09:43:06.414Z,4.22
2018-09-15T09:45:34.805Z,5.58
2018-09-15T09:48:02.886Z,8.53
2018-09-15T09:50:30.617Z,4.47
2018-09-15T09:52:58.804Z,6.47
2018-09-15T09:55:27.618Z,6.12
2018-09-15T09:57:59.319Z,8.25
2018-09-15T10:00:32.642Z,4.58
2018-09-15T10:03:00.442Z,4.95
2018-09-15T10:05:28.058Z,3.92
2018-09-15T10:07:55.855Z,4.13
2018-09-15T10:10:23.528Z,4.05
2018-09-15T10:12:51.329Z,4.65
2018-09-15T10:15:18.984Z,2.47
2018-09-15T10:17:47.181Z,2.95
2018-09-15T10:20:15.193Z,6.17
2018-09-15T10:22:42.827Z,4.70
2018-09-15T10:25:10.706Z,5.78
2018-09-15T10:27:38.311Z,3.22
2018-09-15T10:30:06.078Z,5.10
2018-09-15T10:32:33.768Z,4.37
2018-09-15T10:35:01.972Z,4.17
2018-09-15T10:37:30.304Z,3.25
2018-09-15T10:39:57.987Z,7.15
2018-09-15T10:42:28.898Z,12.85
2018-09-15T10:44:57.679Z,3.90
2018-09-15T10:47:26.171Z,3.92
2018-09-15T10:49:54.678Z,4.45
2018-09-15T10:52:22.595Z,3.72
2018-09-15T10:54:50.562Z,4.10
2018-09-15T10:57:18.273Z,4.23
2018-09-15T10:59:46.517Z,7.33
2018-09-15T11:02:15.085Z,4.97
2018-09-15T11:04:45.015Z,3.20
2018-09-15T11:07:13.898Z,4.00
2018-09-15T11:09:41.659Z,2.60
2018-09-15T11:12:09.646Z,3.60
2018-09-15T11:14:37.360Z,2.80
2018-09-15T11:17:05.698Z,3.87
2018-09-15T11:19:33.374Z,4.62
2018-09-15T11:22:01.332Z,2.50
2018-09-15T11:24:29.373Z,3.20
2018-09-15T11:26:57.289Z,2.52
2018-09-15T11:29:25.181Z,4.42
2018-09-15T11:31:53.051Z,11.48
2018-09-15T11:34:21.078Z,4.00
2018-09-15T11:36:48.787Z,3.13
2018-09-15T11:39:16.419Z,3.65
2018-09-15T11:41:44.412Z,2.72
2018-09-15T11:44:12.159Z,1.42
2018-09-15T11:46:39.878Z,4.28
2018-09-15T11:49:07.520Z,3.77
2018-09-15T11:51:35.103Z,5.70
2018-09-15T11:54:02.879Z,5.15
2018-09-15T11:56:30.552Z,2.72
2018-09-15T11:58:58.163Z,2.98
2018-09-15T12:01:25.786Z,4.20
2018-09-15T12:03:53.525Z,4.80
2018-09-15T12:06:21.185Z,3.10
2018-09-15T12:08:48.848Z,1.90
2018-09-15T12:11:16.571Z,3.85
2018-09-15T12:13:44.230Z,2.65
2018-09-15T12:16:12.254Z,3.00
2018-09-15T12:18:39.962Z,4.00
2018-09-15T12:21:07.989Z,3.15
2018-09-15T12:23:35.795Z,3.47
2018-09-15T12:26:03.569Z,2.85
2018-09-15T12:28:31.268Z,2.25
2018-09-15T12:30:58.930Z,6.75
2018-09-15T12:33:26.635Z,2.17
2018-09-15T12:35:54.371Z,2.65
2018-09-15T12:38:22.747Z,2.40
2018-09-15T12:40:50.655Z,1.42
2018-09-15T12:43:18.361Z,1.90
2018-09-15T12:45:45.998Z,2.67
2018-09-15T12:48:16.123Z,1.70
2018-09-15T12:50:44.006Z,2.05
2018-09-15T12:53:11.772Z,1.50
2018-09-15T12:55:39.613Z,1.95
2018-09-15T12:58:07.852Z,2.92
2018-09-15T13:00:35.628Z,1.92
2018-09-15T13:03:03.424Z,1.92
2018-09-15T13:05:31.050Z,1.75
2018-09-15T13:07:58.657Z,1.67
2018-09-15T13:10:26.393Z,2.40
2018-09-15T13:12:54.126Z,1.90
2018-09-15T13:15:22.068Z,2.62
2018-09-15T13:17:50.172Z,1.72
2018-09-15T13:20:18.130Z,1.65
2018-09-15T13:22:46.013Z,2.45
2018-09-15T13:25:13.793Z,2.77
2018-09-15T13:27:41.471Z,1.98
2018-09-15T13:30:09.352Z,1.75
2018-09-15T13:32:37.104Z,1.62
2018-09-15T13:35:04.908Z,1.62
2018-09-15T13:37:32.536Z,2.27
2018-09-15T13:40:00.276Z,2.10
2018-09-15T13:42:27.906Z,2.60
2018-09-15T13:44:55.723Z,2.83
2018-09-15T13:47:24.018Z,1.80
2018-09-15T13:49:51.664Z,2.00
2018-09-15T13:52:19.567Z,1.80
2018-09-15T13:54:47.355Z,1.62
2018-09-15T13:57:15.082Z,5.70
2018-09-15T13:59:42.739Z,2.70
2018-09-15T14:02:10.442Z,2.05
2018-09-15T14:04:38.303Z,1.77
2018-09-15T14:07:06.111Z,2.33
2018-09-15T14:09:43.286Z,1.77
2018-09-15T14:12:01.842Z,2.45
2018-09-15T14:14:29.514Z,1.67
2018-09-15T14:16:57.240Z,2.72
2018-09-15T14:19:24.858Z,2.85
2018-09-15T14:21:52.551Z,3.15
2018-09-15T14:24:20.271Z,1.80
2018-09-15T14:26:47.911Z,2.13
2018-09-15T14:29:15.664Z,1.57
2018-09-15T14:31:43.344Z,2.20
2018-09-15T14:34:11.305Z,3.27
2018-09-15T14:36:38.954Z,2.90
2018-09-15T14:39:08.461Z,3.50
2018-09-15T14:41:36.216Z,1.98
2018-09-15T14:44:03.859Z,1.60
2018-09-15T14:46:31.600Z,2.52
2018-09-15T14:48:59.210Z,3.60
2018-09-15T14:51:26.989Z,4.58
2018-09-15T14:53:54.638Z,1.83
2018-09-15T14:56:22.306Z,3.05
2018-09-15T14:58:50.191Z,2.08
2018-09-15T15:01:17.795Z,2.22
2018-09-15T15:03:45.474Z,2.20
2018-09-15T15:06:13.496Z,3.92
2018-09-15T15:08:41.180Z,2.25
2018-09-15T15:11:08.900Z,5.70
2018-09-15T15:13:36.599Z,3.60
2018-09-15T15:16:04.273Z,3.08
2018-09-15T15:18:32.777Z,3.00
2018-09-15T15:21:00.538Z,3.50
2018-09-15T15:23:28.240Z,3.33
2018-09-15T15:25:56.320Z,4.08
2018-09-15T15:28:24.039Z,3.17
2018-09-15T15:30:58.594Z,2.80
2018-09-15T15:33:26.326Z,2.10
2018-09-15T15:35:53.976Z,3.25
2018-09-15T15:38:21.836Z,2.50
2018-09-15T15:40:49.513Z,2.85
2018-09-15T15:43:17.240Z,2.55
2018-09-15T15:45:44.892Z,2.87
2018-09-15T15:48:12.644Z,2.42
2018-09-15T15:50:40.310Z,2.35
2018-09-15T15:53:07.992Z,3.83
2018-09-15T15:55:35.662Z,2.70
2018-09-15T15:58:03.339Z,2.12
2018-09-15T16:00:31.052Z,3.17
2018-09-15T16:02:58.800Z,2.45
2018-09-15T16:05:27.376Z,5.80
2018-09-15T16:07:55.034Z,3.80
2018-09-15T16:10:22.772Z,2.70
2018-09-15T16:12:50.721Z,1.98
2018-09-15T16:15:18.720Z,2.35
2018-09-15T16:17:46.583Z,2.60
2018-09-15T16:20:14.504Z,3.08
2018-09-15T16:22:42.177Z,2.20
2018-09-15T16:25:10.290Z,3.20
2018-09-15T16:27:38.157Z,5.37
2018-09-15T16:30:06.335Z,2.58
2018-09-15T16:32:34.008Z,2.00
2018-09-15T16:35:01.649Z,2.62
2018-09-15T16:37:29.360Z,2.00
2018-09-15T16:39:57.966Z,2.83
2018-09-15T16:42:25.761Z,2.73
2018-09-15T16:44:53.440Z,2.08
2018-09-15T16:47:21.154Z,4.12
2018-09-15T16:49:48.991Z,3.12
2018-09-15T16:52:16.733Z,2.27
2018-09-15T16:54:44.561Z,4.15
2018-09-15T16:57:12.560Z,3.00
2018-09-15T16:59:40.845Z,4.70
2018-09-15T17:02:08.634Z,3.08
2018-09-15T17:04:36.414Z,2.70
2018-09-15T17:07:04.143Z,2.80
2018-09-15T17:09:31.999Z,2.60
2018-09-15T17:12:00.046Z,2.90
2018-09-15T17:14:27.774Z,2.33
2018-09-15T17:16:55.613Z,2.90
2018-09-15T17:19:23.398Z,3.65
2018-09-15T17:21:51.072Z,2.67
2018-09-15T17:24:18.782Z,2.37
2018-09-15T17:26:46.762Z,2.80
2018-09-15T17:29:14.791Z,2.10
2018-09-15T17:31:42.579Z,1.92
2018-09-15T17:34:10.410Z,2.33
2018-09-15T17:36:38.170Z,2.42
2018-09-15T17:39:08.760Z,3.52
2018-09-15T17:41:37.599Z,3.10
2018-09-15T17:44:05.673Z,3.62
2018-09-15T17:46:33.501Z,2.60
2018-09-15T17:49:02.878Z,2.40
2018-09-15T17:51:31.495Z,2.50
2018-09-15T17:53:59.702Z,2.80
2018-09-15T17:56:27.485Z,3.20
2018-09-15T17:58:55.199Z,2.77
2018-09-15T18:01:23.145Z,3.08
2018-09-15T18:03:54.365Z,3.52
2018-09-15T18:06:22.034Z,2.90
2018-09-15T18:08:52.762Z,2.50
2018-09-15T18:11:20.837Z,2.40
2018-09-15T18:13:48.632Z,3.00
2018-09-15T18:16:16.382Z,2.58
2018-09-15T18:18:44.732Z,2.53
2018-09-15T18:21:12.415Z,2.47
2018-09-15T18:23:40.155Z,2.92
2018-09-15T18:26:07.945Z,3.40
2018-09-15T18:31:24.874Z,5.00
2018-09-15T18:33:56.042Z,5.50
2018-09-15T18:36:23.683Z,6.57
2018-09-15T18:38:51.572Z,5.28
2018-09-15T18:41:19.740Z,6.33
2018-09-15T18:43:47.881Z,5.85
2018-09-15T18:46:15.890Z,5.72
2018-09-15T18:48:43.965Z,5.40
2018-09-15T18:51:13.676Z,4.95
2018-09-15T18:53:42.453Z,5.10
2018-09-15T18:56:10.776Z,8.05
2018-09-15T18:58:39.176Z,5.90
2018-09-15T19:01:07.248Z,5.50
2018-09-15T19:03:35.285Z,4.90
2018-09-15T19:06:03.360Z,4.73
2018-09-15T19:08:31.436Z,4.47
2018-09-15T19:10:59.542Z,6.10
2018-09-15T19:13:27.591Z,9.40
2018-09-15T19:15:55.506Z,11.57
2018-09-15T19:18:23.759Z,12.07
2018-09-15T19:20:52.807Z,12.90
2018-09-15T19:23:20.741Z,13.43
2018-09-15T19:25:53.853Z,10.13
2018-09-15T19:28:22.097Z,7.70
2018-09-15T19:30:51.432Z,7.10
2018-09-15T19:33:19.673Z,9.57
2018-09-15T19:35:47.747Z,12.63
2018-09-15T19:38:16.046Z,17.77
2018-09-15T19:40:44.158Z,22.82
2018-09-15T19:43:12.243Z,19.77
2018-09-15T19:45:40.473Z,21.20
2018-09-15T19:48:08.557Z,18.20
2018-09-15T19:50:36.616Z,10.15
2018-09-15T19:53:04.751Z,9.15
2018-09-15T19:55:32.879Z,10.43
2018-09-15T19:58:01.051Z,6.67
2018-09-15T20:00:29.143Z,7.73
2018-09-15T20:02:57.312Z,5.70
2018-09-15T20:05:26.437Z,6.17
2018-09-15T20:07:54.433Z,5.07
2018-09-15T20:10:22.503Z,4.33
2018-09-15T20:12:50.654Z,6.90
2018-09-15T20:15:26.823Z,5.10
2018-09-15T20:17:53.778Z,5.77
2018-09-15T20:20:21.409Z,5.50
2018-09-15T20:22:50.555Z,5.13
2018-09-15T20:25:18.824Z,6.20
2018-09-15T20:27:46.880Z,6.77
2018-09-15T20:30:15.198Z,6.43
2018-09-15T20:32:43.565Z,7.30
2018-09-15T20:35:11.683Z,5.67
2018-09-15T20:37:40.133Z,7.43
2018-09-15T20:40:09.339Z,8.60
2018-09-15T20:42:40.061Z,8.60
2018-09-15T20:45:09.626Z,8.60
2018-09-15T20:47:39.132Z,7.13
2018-09-15T20:50:08.097Z,6.70
2018-09-15T20:52:36.164Z,7.60
2018-09-15T20:55:04.465Z,7.03
2018-09-15T20:57:32.459Z,7.73
2018-09-15T21:00:00.672Z,7.50
2018-09-15T21:02:28.780Z,10.73
2018-09-15T21:04:56.782Z,16.37
2018-09-15T21:07:24.780Z,15.93
2018-09-15T21:09:54.193Z,12.40
2018-09-15T21:12:22.227Z,10.47
2018-09-15T21:14:51.375Z,10.87
2018-09-15T21:17:19.544Z,9.27
2018-09-15T21:19:47.590Z,9.80
2018-09-15T21:22:15.694Z,8.10
2018-09-15T21:24:43.754Z,10.70
2018-09-15T21:27:12.654Z,8.17
2018-09-15T21:29:40.719Z,7.33
2018-09-15T21:32:08.822Z,8.07
2018-09-15T21:34:37.275Z,6.33
2018-09-15T21:37:05.828Z,7.73
2018-09-15T21:39:33.943Z,5.90
2018-09-15T21:42:02.102Z,6.73
2018-09-15T21:44:30.696Z,5.73
2018-09-15T21:46:59.047Z,5.70
2018-09-15T21:49:27.287Z,5.80
2018-09-15T21:51:55.445Z,5.77
2018-09-15T21:54:23.427Z,6.00
2018-09-15T21:56:51.470Z,6.60
2018-09-15T21:59:19.584Z,7.60
2018-09-15T22:01:47.595Z,8.50
2018-09-15T22:04:21.833Z,7.27
2018-09-15T22:06:51.588Z,7.03
2018-09-15T22:09:19.743Z,7.60
2018-09-15T22:11:47.746Z,8.20
2018-09-15T22:14:15.903Z,8.57
2018-09-15T22:16:44.290Z,9.70
2018-09-15T22:19:12.548Z,7.63
2018-09-15T22:21:40.699Z,8.47
2018-09-15T22:24:08.690Z,8.30
2018-09-15T22:26:36.939Z,5.77
2018-09-15T22:29:05.292Z,6.10
2018-09-15T22:31:33.259Z,7.03
2018-09-15T22:34:10.611Z,6.07
2018-09-15T22:36:38.229Z,5.43
2018-09-15T22:39:07.308Z,5.37
2018-09-15T22:41:35.276Z,6.40
2018-09-15T22:44:02.914Z,5.57
2018-09-15T22:46:30.471Z,5.20
2018-09-15T22:48:58.249Z,5.00
2018-09-15T22:51:25.976Z,9.93
2018-09-15T22:53:53.591Z,6.17
2018-09-15T22:56:21.332Z,5.00
2018-09-15T22:58:49.244Z,5.03
2018-09-15T23:01:16.918Z,5.00
2018-09-15T23:03:44.556Z,7.53
2018-09-15T23:06:12.678Z,6.57
2018-09-15T23:08:40.394Z,6.30
2018-09-15T23:11:08.484Z,4.70
2018-09-15T23:13:36.100Z,6.13
2018-09-15T23:16:03.816Z,5.53
2018-09-15T23:18:31.460Z,5.40
2018-09-15T23:20:59.163Z,5.37
2018-09-15T23:23:26.769Z,6.63
2018-09-15T23:25:54.485Z,5.67
2018-09-15T23:28:22.289Z,6.37
2018-09-15T23:30:49.888Z,5.90
2018-09-15T23:33:17.536Z,5.40
2018-09-15T23:35:45.119Z,7.03
2018-09-15T23:38:12.771Z,5.43
2018-09-15T23:40:40.354Z,6.10
2018-09-15T23:43:08.115Z,5.87
2018-09-15T23:45:35.732Z,5.67
2018-09-15T23:48:03.381Z,5.00
2018-09-15T23:50:31.164Z,5.20
2018-09-15T23:52:58.830Z,4.60
2018-09-15T23:55:26.431Z,4.63
2018-09-15T23:57:54.158Z,6.30
